sensor_id;sensor_type;location;lat;lon;timestamp;temperature;humidity
12655;DHT22;6392;44.644;11.448;2023-11-19T00:01:37;6.60;99.90
12655;DHT22;6392;44.644;11.448;2023-11-19T00:04:04;6.60;99.90
12655;DHT22;6392;44.644;11.448;2023-11-19T00:06:32;6.60;99.90
12655;DHT22;6392;44.644;11.448;2023-11-19T00:09:00;6.60;99.90
12655;DHT22;6392;44.644;11.448;2023-11-19T00:11:27;6.60;99.90
12655;DHT22;6392;44.644;11.448;2023-11-19T00:13:54;6.60;99.90
12655;DHT22;6392;44.644;11.448;2023-11-19T00:16:21;6.60;99.90
12655;DHT22;6392;44.644;11.448;2023-11-19T00:18:48;6.60;99.90
12655;DHT22;6392;44.644;11.448;2023-11-19T00:21:15;6.60;99.90
12655;DHT22;6392;44.644;11.448;2023-11-19T00:23:44;6.50;99.90
12655;DHT22;6392;44.644;11.448;2023-11-19T00:26:11;6.50;99.90
12655;DHT22;6392;44.644;11.448;2023-11-19T00:28:39;6.40;99.90
12655;DHT22;6392;44.644;11.448;2023-11-19T00:31:06;6.40;99.90
12655;DHT22;6392;44.644;11.448;2023-11-19T00:33:33;6.40;99.90
12655;DHT22;6392;44.644;11.448;2023-11-19T00:36:00;6.40;99.90
12655;DHT22;6392;44.644;11.448;2023-11-19T00:38:28;6.50;99.90
12655;DHT22;6392;44.644;11.448;2023-11-19T00:40:57;6.50;99.90
12655;DHT22;6392;44.644;11.448;2023-11-19T00:43:24;6.50;99.90
12655;DHT22;6392;44.644;11.448;2023-11-19T00:45:52;6.60;99.90
12655;DHT22;6392;44.644;11.448;2023-11-19T00:48:19;6.60;99.90
12655;DHT22;6392;44.644;11.448;2023-11-19T00:50:46;6.70;99.90
12655;DHT22;6392;44.644;11.448;2023-11-19T00:53:13;6.70;99.90
12655;DHT22;6392;44.644;11.448;2023-11-19T00:55:40;6.60;99.90
12655;DHT22;6392;44.644;11.448;2023-11-19T00:58:09;6.60;99.90
12655;DHT22;6392;44.644;11.448;2023-11-19T01:00:36;6.50;99.90
12655;DHT22;6392;44.644;11.448;2023-11-19T01:03:03;6.40;99.90
12655;DHT22;6392;44.644;11.448;2023-11-19T01:05:30;6.40;99.90
12655;DHT22;6392;44.644;11.448;2023-11-19T01:07:57;6.30;99.90
12655;DHT22;6392;44.644;11.448;2023-11-19T01:10:24;6.30;99.90
12655;DHT22;6392;44.644;11.448;2023-11-19T01:12:51;6.40;99.90
12655;DHT22;6392;44.644;11.448;2023-11-19T01:15:20;6.40;99.90
12655;DHT22;6392;44.644;11.448;2023-11-19T01:17:48;6.50;99.90
12655;DHT22;6392;44.644;11.448;2023-11-19T01:20:15;6.60;99.90
12655;DHT22;6392;44.644;11.448;2023-11-19T01:22:42;6.60;99.90
12655;DHT22;6392;44.644;11.448;2023-11-19T01:25:10;6.50;99.90
12655;DHT22;6392;44.644;11.448;2023-11-19T01:27:37;6.40;99.90
12655;DHT22;6392;44.644;11.448;2023-11-19T01:30:05;6.40;99.90
12655;DHT22;6392;44.644;11.448;2023-11-19T01:32:36;6.30;99.90
12655;DHT22;6392;44.644;11.448;2023-11-19T01:35:04;6.30;99.90
12655;DHT22;6392;44.644;11.448;2023-11-19T01:37:31;6.30;99.90
12655;DHT22;6392;44.644;11.448;2023-11-19T01:39:58;6.30;99.90
12655;DHT22;6392;44.644;11.448;2023-11-19T01:42:25;6.30;99.90
12655;DHT22;6392;44.644;11.448;2023-11-19T01:44:58;6.30;99.90
12655;DHT22;6392;44.644;11.448;2023-11-19T01:47:25;6.30;99.90
12655;DHT22;6392;44.644;11.448;2023-11-19T01:49:54;6.30;99.90
12655;DHT22;6392;44.644;11.448;2023-11-19T01:52:23;6.40;99.90
12655;DHT22;6392;44.644;11.448;2023-11-19T01:54:50;6.50;99.90
12655;DHT22;6392;44.644;11.448;2023-11-19T01:57:18;6.50;99.90
12655;DHT22;6392;44.644;11.448;2023-11-19T01:59:46;6.50;99.90
12655;DHT22;6392;44.644;11.448;2023-11-19T02:02:13;6.50;99.90
12655;DHT22;6392;44.644;11.448;2023-11-19T02:04:41;6.60;99.90
12655;DHT22;6392;44.644;11.448;2023-11-19T02:07:10;6.60;99.90
12655;DHT22;6392;44.644;11.448;2023-11-19T02:09:37;6.50;99.90
12655;DHT22;6392;44.644;11.448;2023-11-19T02:12:04;6.60;99.90
12655;DHT22;6392;44.644;11.448;2023-11-19T02:14:33;6.50;99.90
12655;DHT22;6392;44.644;11.448;2023-11-19T02:17:00;6.60;99.90
12655;DHT22;6392;44.644;11.448;2023-11-19T02:19:27;6.60;99.90
12655;DHT22;6392;44.644;11.448;2023-11-19T02:21:54;6.60;99.90
12655;DHT22;6392;44.644;11.448;2023-11-19T02:24:26;6.70;99.90
12655;DHT22;6392;44.644;11.448;2023-11-19T02:27:00;6.70;99.90
12655;DHT22;6392;44.644;11.448;2023-11-19T02:29:30;6.70;99.90
12655;DHT22;6392;44.644;11.448;2023-11-19T02:31:57;6.70;99.90
12655;DHT22;6392;44.644;11.448;2023-11-19T02:34:25;6.70;99.90
12655;DHT22;6392;44.644;11.448;2023-11-19T02:36:52;6.70;99.90
12655;DHT22;6392;44.644;11.448;2023-11-19T02:39:20;6.70;99.90
12655;DHT22;6392;44.644;11.448;2023-11-19T02:41:47;6.70;99.90
12655;DHT22;6392;44.644;11.448;2023-11-19T02:44:16;6.70;99.90
12655;DHT22;6392;44.644;11.448;2023-11-19T02:46:45;6.60;99.90
12655;DHT22;6392;44.644;11.448;2023-11-19T02:49:14;6.60;99.90
12655;DHT22;6392;44.644;11.448;2023-11-19T02:51:41;6.60;99.90
12655;DHT22;6392;44.644;11.448;2023-11-19T02:54:08;6.60;99.90
12655;DHT22;6392;44.644;11.448;2023-11-19T02:56:35;6.50;99.90
12655;DHT22;6392;44.644;11.448;2023-11-19T02:59:04;6.50;99.90
12655;DHT22;6392;44.644;11.448;2023-11-19T03:01:40;6.50;99.90
12655;DHT22;6392;44.644;11.448;2023-11-19T03:04:10;6.50;99.90
12655;DHT22;6392;44.644;11.448;2023-11-19T03:06:42;6.50;99.90
12655;DHT22;6392;44.644;11.448;2023-11-19T03:09:09;6.50;99.90
12655;DHT22;6392;44.644;11.448;2023-11-19T03:11:37;6.50;99.90
12655;DHT22;6392;44.644;11.448;2023-11-19T03:14:04;6.60;99.90
12655;DHT22;6392;44.644;11.448;2023-11-19T03:16:31;6.60;99.90
12655;DHT22;6392;44.644;11.448;2023-11-19T03:18:58;6.60;99.90
12655;DHT22;6392;44.644;11.448;2023-11-19T03:21:29;6.70;99.90
12655;DHT22;6392;44.644;11.448;2023-11-19T03:23:57;6.70;99.90
12655;DHT22;6392;44.644;11.448;2023-11-19T03:26:26;6.70;99.90
12655;DHT22;6392;44.644;11.448;2023-11-19T03:28:53;6.70;99.90
12655;DHT22;6392;44.644;11.448;2023-11-19T03:31:20;6.70;99.90
12655;DHT22;6392;44.644;11.448;2023-11-19T03:33:47;6.70;99.90
12655;DHT22;6392;44.644;11.448;2023-11-19T03:36:14;6.70;99.90
12655;DHT22;6392;44.644;11.448;2023-11-19T03:38:42;6.60;99.90
12655;DHT22;6392;44.644;11.448;2023-11-19T03:41:13;6.60;99.90
12655;DHT22;6392;44.644;11.448;2023-11-19T03:43:40;6.60;99.90
12655;DHT22;6392;44.644;11.448;2023-11-19T03:46:17;6.50;99.90
12655;DHT22;6392;44.644;11.448;2023-11-19T03:48:44;6.50;99.90
12655;DHT22;6392;44.644;11.448;2023-11-19T03:51:12;6.50;99.90
12655;DHT22;6392;44.644;11.448;2023-11-19T03:53:42;6.60;99.90
12655;DHT22;6392;44.644;11.448;2023-11-19T03:56:10;6.60;99.90
12655;DHT22;6392;44.644;11.448;2023-11-19T03:58:37;6.70;99.90
12655;DHT22;6392;44.644;11.448;2023-11-19T04:01:04;6.70;99.90
12655;DHT22;6392;44.644;11.448;2023-11-19T04:03:31;6.70;99.90
12655;DHT22;6392;44.644;11.448;2023-11-19T04:05:58;6.80;99.90
12655;DHT22;6392;44.644;11.448;2023-11-19T04:08:25;6.80;99.90
12655;DHT22;6392;44.644;11.448;2023-11-19T04:10:54;6.80;99.90
12655;DHT22;6392;44.644;11.448;2023-11-19T04:13:21;6.80;99.90
12655;DHT22;6392;44.644;11.448;2023-11-19T04:15:50;6.90;99.90
12655;DHT22;6392;44.644;11.448;2023-11-19T04:18:17;6.90;99.90
12655;DHT22;6392;44.644;11.448;2023-11-19T04:20:44;6.80;99.90
12655;DHT22;6392;44.644;11.448;2023-11-19T04:23:11;6.90;99.90
12655;DHT22;6392;44.644;11.448;2023-11-19T04:25:38;6.80;99.90
12655;DHT22;6392;44.644;11.448;2023-11-19T04:28:06;6.90;99.90
12655;DHT22;6392;44.644;11.448;2023-11-19T04:30:33;6.80;99.90
12655;DHT22;6392;44.644;11.448;2023-11-19T04:33:01;6.80;99.90
12655;DHT22;6392;44.644;11.448;2023-11-19T04:35:28;6.80;99.90
12655;DHT22;6392;44.644;11.448;2023-11-19T04:37:55;6.80;99.90
12655;DHT22;6392;44.644;11.448;2023-11-19T04:40:23;6.70;99.90
12655;DHT22;6392;44.644;11.448;2023-11-19T04:42:50;6.70;99.90
12655;DHT22;6392;44.644;11.448;2023-11-19T04:45:18;6.70;99.90
12655;DHT22;6392;44.644;11.448;2023-11-19T04:47:45;6.70;99.90
12655;DHT22;6392;44.644;11.448;2023-11-19T04:50:12;6.70;99.90
12655;DHT22;6392;44.644;11.448;2023-11-19T04:52:39;6.60;99.90
12655;DHT22;6392;44.644;11.448;2023-11-19T04:55:08;6.60;99.90
12655;DHT22;6392;44.644;11.448;2023-11-19T04:57:38;6.50;99.90
12655;DHT22;6392;44.644;11.448;2023-11-19T05:00:06;6.50;99.90
12655;DHT22;6392;44.644;11.448;2023-11-19T05:02:35;6.50;99.90
12655;DHT22;6392;44.644;11.448;2023-11-19T05:05:03;6.50;99.90
12655;DHT22;6392;44.644;11.448;2023-11-19T05:07:30;6.50;99.90
12655;DHT22;6392;44.644;11.448;2023-11-19T05:09:57;6.40;99.90
12655;DHT22;6392;44.644;11.448;2023-11-19T05:12:25;6.40;99.90
12655;DHT22;6392;44.644;11.448;2023-11-19T05:14:52;6.40;99.90
12655;DHT22;6392;44.644;11.448;2023-11-19T05:17:19;6.40;99.90
12655;DHT22;6392;44.644;11.448;2023-11-19T05:19:48;6.40;99.90
12655;DHT22;6392;44.644;11.448;2023-11-19T05:22:15;6.40;99.90
12655;DHT22;6392;44.644;11.448;2023-11-19T05:24:42;6.40;99.90
12655;DHT22;6392;44.644;11.448;2023-11-19T05:27:10;6.40;99.90
12655;DHT22;6392;44.644;11.448;2023-11-19T05:29:39;6.40;99.90
12655;DHT22;6392;44.644;11.448;2023-11-19T05:32:07;6.30;99.90
12655;DHT22;6392;44.644;11.448;2023-11-19T05:34:34;6.30;99.90
12655;DHT22;6392;44.644;11.448;2023-11-19T05:37:02;6.30;99.90
12655;DHT22;6392;44.644;11.448;2023-11-19T05:39:31;6.30;99.90
12655;DHT22;6392;44.644;11.448;2023-11-19T05:41:58;6.30;99.90
12655;DHT22;6392;44.644;11.448;2023-11-19T05:44:25;6.30;99.90
12655;DHT22;6392;44.644;11.448;2023-11-19T05:46:52;6.20;99.90
12655;DHT22;6392;44.644;11.448;2023-11-19T05:49:19;6.20;99.90
12655;DHT22;6392;44.644;11.448;2023-11-19T05:51:46;6.20;99.90
12655;DHT22;6392;44.644;11.448;2023-11-19T05:54:14;6.10;99.90
12655;DHT22;6392;44.644;11.448;2023-11-19T05:56:41;6.00;99.90
12655;DHT22;6392;44.644;11.448;2023-11-19T05:59:08;5.90;99.90
12655;DHT22;6392;44.644;11.448;2023-11-19T06:01:40;6.00;99.90
12655;DHT22;6392;44.644;11.448;2023-11-19T06:04:08;6.00;99.90
12655;DHT22;6392;44.644;11.448;2023-11-19T06:06:35;5.90;99.90
12655;DHT22;6392;44.644;11.448;2023-11-19T06:09:02;5.90;99.90
12655;DHT22;6392;44.644;11.448;2023-11-19T06:11:33;6.00;99.90
12655;DHT22;6392;44.644;11.448;2023-11-19T06:14:01;6.10;99.90
12655;DHT22;6392;44.644;11.448;2023-11-19T06:16:29;6.10;99.90
12655;DHT22;6392;44.644;11.448;2023-11-19T06:18:56;6.10;99.90
12655;DHT22;6392;44.644;11.448;2023-11-19T06:21:23;6.10;99.90
12655;DHT22;6392;44.644;11.448;2023-11-19T06:23:50;6.10;99.90
12655;DHT22;6392;44.644;11.448;2023-11-19T06:26:18;6.10;99.90
12655;DHT22;6392;44.644;11.448;2023-11-19T06:28:49;6.10;99.90
12655;DHT22;6392;44.644;11.448;2023-11-19T06:31:16;6.00;99.90
12655;DHT22;6392;44.644;11.448;2023-11-19T06:33:43;6.00;99.90
12655;DHT22;6392;44.644;11.448;2023-11-19T06:36:10;6.00;99.90
12655;DHT22;6392;44.644;11.448;2023-11-19T06:38:37;6.00;99.90
12655;DHT22;6392;44.644;11.448;2023-11-19T06:41:07;6.00;99.90
12655;DHT22;6392;44.644;11.448;2023-11-19T06:43:35;6.10;99.90
12655;DHT22;6392;44.644;11.448;2023-11-19T06:46:03;6.10;99.90
12655;DHT22;6392;44.644;11.448;2023-11-19T06:48:31;6.20;99.90
12655;DHT22;6392;44.644;11.448;2023-11-19T06:51:00;6.20;99.90
12655;DHT22;6392;44.644;11.448;2023-11-19T06:53:27;6.20;99.90
12655;DHT22;6392;44.644;11.448;2023-11-19T06:55:54;6.20;99.90
12655;DHT22;6392;44.644;11.448;2023-11-19T06:58:22;6.20;99.90
12655;DHT22;6392;44.644;11.448;2023-11-19T07:00:49;6.20;99.90
12655;DHT22;6392;44.644;11.448;2023-11-19T07:03:18;6.20;99.90
12655;DHT22;6392;44.644;11.448;2023-11-19T07:05:46;6.20;99.90
12655;DHT22;6392;44.644;11.448;2023-11-19T07:08:13;6.20;99.90
12655;DHT22;6392;44.644;11.448;2023-11-19T07:10:40;6.10;99.90
12655;DHT22;6392;44.644;11.448;2023-11-19T07:13:07;6.20;99.90
12655;DHT22;6392;44.644;11.448;2023-11-19T07:15:34;6.10;99.90
12655;DHT22;6392;44.644;11.448;2023-11-19T07:18:00;6.20;99.90
12655;DHT22;6392;44.644;11.448;2023-11-19T07:20:29;6.20;99.90
12655;DHT22;6392;44.644;11.448;2023-11-19T07:22:56;6.20;99.90
12655;DHT22;6392;44.644;11.448;2023-11-19T07:25:23;6.20;99.90
12655;DHT22;6392;44.644;11.448;2023-11-19T07:27:51;6.20;99.90
12655;DHT22;6392;44.644;11.448;2023-11-19T07:30:19;6.20;99.90
12655;DHT22;6392;44.644;11.448;2023-11-19T07:32:46;6.30;99.90
12655;DHT22;6392;44.644;11.448;2023-11-19T07:35:12;6.30;99.90
12655;DHT22;6392;44.644;11.448;2023-11-19T07:37:42;6.40;99.90
12655;DHT22;6392;44.644;11.448;2023-11-19T07:40:12;6.50;99.90
12655;DHT22;6392;44.644;11.448;2023-11-19T07:42:39;6.60;99.90
12655;DHT22;6392;44.644;11.448;2023-11-19T07:45:07;6.70;99.90
12655;DHT22;6392;44.644;11.448;2023-11-19T07:47:34;6.80;99.90
12655;DHT22;6392;44.644;11.448;2023-11-19T07:50:01;6.80;99.90
12655;DHT22;6392;44.644;11.448;2023-11-19T07:52:29;6.80;99.90
12655;DHT22;6392;44.644;11.448;2023-11-19T07:54:58;6.90;99.90
12655;DHT22;6392;44.644;11.448;2023-11-19T07:57:25;7.00;99.90
12655;DHT22;6392;44.644;11.448;2023-11-19T07:59:53;7.10;99.90
12655;DHT22;6392;44.644;11.448;2023-11-19T08:02:20;7.20;99.90
12655;DHT22;6392;44.644;11.448;2023-11-19T08:04:49;7.20;99.90
12655;DHT22;6392;44.644;11.448;2023-11-19T08:07:17;7.30;99.90
12655;DHT22;6392;44.644;11.448;2023-11-19T08:09:44;7.40;99.90
12655;DHT22;6392;44.644;11.448;2023-11-19T08:12:13;7.40;99.90
12655;DHT22;6392;44.644;11.448;2023-11-19T08:14:41;7.50;99.90
12655;DHT22;6392;44.644;11.448;2023-11-19T08:17:08;7.60;99.90
12655;DHT22;6392;44.644;11.448;2023-11-19T08:19:35;7.60;99.90
12655;DHT22;6392;44.644;11.448;2023-11-19T08:22:02;7.70;99.90
12655;DHT22;6392;44.644;11.448;2023-11-19T08:24:29;7.70;99.90
12655;DHT22;6392;44.644;11.448;2023-11-19T08:26:56;7.80;99.90
12655;DHT22;6392;44.644;11.448;2023-11-19T08:29:25;7.90;99.90
12655;DHT22;6392;44.644;11.448;2023-11-19T08:31:53;7.90;99.90
12655;DHT22;6392;44.644;11.448;2023-11-19T08:34:20;7.90;99.90
12655;DHT22;6392;44.644;11.448;2023-11-19T08:36:50;8.00;99.90
12655;DHT22;6392;44.644;11.448;2023-11-19T08:39:18;8.10;99.90
12655;DHT22;6392;44.644;11.448;2023-11-19T08:41:46;8.10;99.90
12655;DHT22;6392;44.644;11.448;2023-11-19T08:44:14;8.20;99.90
12655;DHT22;6392;44.644;11.448;2023-11-19T08:46:47;8.30;99.90
12655;DHT22;6392;44.644;11.448;2023-11-19T08:49:15;8.40;99.90
12655;DHT22;6392;44.644;11.448;2023-11-19T08:51:42;8.40;99.90
12655;DHT22;6392;44.644;11.448;2023-11-19T08:54:09;8.50;99.90
12655;DHT22;6392;44.644;11.448;2023-11-19T08:56:36;8.60;99.90
12655;DHT22;6392;44.644;11.448;2023-11-19T08:59:05;8.60;99.90
12655;DHT22;6392;44.644;11.448;2023-11-19T09:01:32;8.70;99.90
12655;DHT22;6392;44.644;11.448;2023-11-19T09:04:00;8.80;99.90
12655;DHT22;6392;44.644;11.448;2023-11-19T09:06:27;8.90;99.90
12655;DHT22;6392;44.644;11.448;2023-11-19T09:08:54;9.00;99.90
12655;DHT22;6392;44.644;11.448;2023-11-19T09:11:26;9.20;99.90
12655;DHT22;6392;44.644;11.448;2023-11-19T09:13:53;9.20;99.90
12655;DHT22;6392;44.644;11.448;2023-11-19T09:16:20;9.30;99.90
12655;DHT22;6392;44.644;11.448;2023-11-19T09:18:47;9.40;99.90
12655;DHT22;6392;44.644;11.448;2023-11-19T09:21:15;9.40;99.90
12655;DHT22;6392;44.644;11.448;2023-11-19T09:23:43;9.50;99.90
12655;DHT22;6392;44.644;11.448;2023-11-19T09:26:10;9.50;99.90
12655;DHT22;6392;44.644;11.448;2023-11-19T09:28:37;9.50;99.90
12655;DHT22;6392;44.644;11.448;2023-11-19T09:31:13;9.60;99.90
12655;DHT22;6392;44.644;11.448;2023-11-19T09:33:40;9.70;99.90
12655;DHT22;6392;44.644;11.448;2023-11-19T09:36:08;9.70;99.90
12655;DHT22;6392;44.644;11.448;2023-11-19T09:38:37;9.80;99.90
12655;DHT22;6392;44.644;11.448;2023-11-19T09:41:05;9.90;99.90
12655;DHT22;6392;44.644;11.448;2023-11-19T09:43:35;10.00;99.90
12655;DHT22;6392;44.644;11.448;2023-11-19T09:46:05;10.00;99.90
12655;DHT22;6392;44.644;11.448;2023-11-19T09:48:33;10.00;99.90
12655;DHT22;6392;44.644;11.448;2023-11-19T09:51:03;10.00;99.90
12655;DHT22;6392;44.644;11.448;2023-11-19T09:53:31;10.10;99.90
12655;DHT22;6392;44.644;11.448;2023-11-19T09:56:00;10.10;99.90
12655;DHT22;6392;44.644;11.448;2023-11-19T09:58:29;10.20;99.90
12655;DHT22;6392;44.644;11.448;2023-11-19T10:00:57;10.20;99.90
12655;DHT22;6392;44.644;11.448;2023-11-19T10:03:25;10.30;99.90
12655;DHT22;6392;44.644;11.448;2023-11-19T10:05:54;10.30;99.90
12655;DHT22;6392;44.644;11.448;2023-11-19T10:08:21;10.30;99.90
12655;DHT22;6392;44.644;11.448;2023-11-19T10:10:49;10.40;99.90
12655;DHT22;6392;44.644;11.448;2023-11-19T10:13:19;10.50;99.90
12655;DHT22;6392;44.644;11.448;2023-11-19T10:15:46;10.50;99.90
12655;DHT22;6392;44.644;11.448;2023-11-19T10:18:15;10.60;99.90
12655;DHT22;6392;44.644;11.448;2023-11-19T10:20:42;10.60;99.90
12655;DHT22;6392;44.644;11.448;2023-11-19T10:23:09;10.70;99.90
12655;DHT22;6392;44.644;11.448;2023-11-19T10:25:37;10.70;99.90
12655;DHT22;6392;44.644;11.448;2023-11-19T10:28:04;10.80;99.90
12655;DHT22;6392;44.644;11.448;2023-11-19T10:30:32;10.80;99.90
12655;DHT22;6392;44.644;11.448;2023-11-19T10:33:04;10.90;99.90
12655;DHT22;6392;44.644;11.448;2023-11-19T10:35:32;10.90;99.90
12655;DHT22;6392;44.644;11.448;2023-11-19T10:38:00;10.90;99.90
12655;DHT22;6392;44.644;11.448;2023-11-19T10:40:40;10.90;99.90
12655;DHT22;6392;44.644;11.448;2023-11-19T10:43:07;11.00;99.90
12655;DHT22;6392;44.644;11.448;2023-11-19T10:45:36;11.10;99.90
12655;DHT22;6392;44.644;11.448;2023-11-19T10:48:04;11.10;99.90
12655;DHT22;6392;44.644;11.448;2023-11-19T10:50:33;11.20;99.90
12655;DHT22;6392;44.644;11.448;2023-11-19T10:53:00;11.30;99.90
12655;DHT22;6392;44.644;11.448;2023-11-19T10:55:31;11.40;99.90
12655;DHT22;6392;44.644;11.448;2023-11-19T10:58:01;11.40;99.90
12655;DHT22;6392;44.644;11.448;2023-11-19T11:00:29;11.40;99.90
12655;DHT22;6392;44.644;11.448;2023-11-19T11:03:02;11.50;99.90
12655;DHT22;6392;44.644;11.448;2023-11-19T11:05:32;11.50;99.90
12655;DHT22;6392;44.644;11.448;2023-11-19T11:08:00;11.60;99.90
12655;DHT22;6392;44.644;11.448;2023-11-19T11:10:28;11.60;99.90
12655;DHT22;6392;44.644;11.448;2023-11-19T11:13:03;11.70;99.90
12655;DHT22;6392;44.644;11.448;2023-11-19T11:15:30;11.70;99.90
12655;DHT22;6392;44.644;11.448;2023-11-19T11:18:01;11.80;99.90
12655;DHT22;6392;44.644;11.448;2023-11-19T11:20:30;11.80;99.90
12655;DHT22;6392;44.644;11.448;2023-11-19T11:23:20;12.00;99.90
12655;DHT22;6392;44.644;11.448;2023-11-19T11:26:13;12.00;99.90
12655;DHT22;6392;44.644;11.448;2023-11-19T11:28:48;12.10;99.90
12655;DHT22;6392;44.644;11.448;2023-11-19T11:31:25;12.10;99.90
12655;DHT22;6392;44.644;11.448;2023-11-19T11:37:05;12.20;99.90
12655;DHT22;6392;44.644;11.448;2023-11-19T11:39:34;12.20;99.90
12655;DHT22;6392;44.644;11.448;2023-11-19T11:42:34;12.30;99.90
12655;DHT22;6392;44.644;11.448;2023-11-19T11:45:03;12.40;99.90
12655;DHT22;6392;44.644;11.448;2023-11-19T11:48:10;12.50;99.90
12655;DHT22;6392;44.644;11.448;2023-11-19T11:50:53;12.60;99.90
12655;DHT22;6392;44.644;11.448;2023-11-19T11:53:22;12.60;99.90
12655;DHT22;6392;44.644;11.448;2023-11-19T11:55:57;12.60;99.90
12655;DHT22;6392;44.644;11.448;2023-11-19T11:58:36;12.70;99.90
12655;DHT22;6392;44.644;11.448;2023-11-19T12:01:05;12.80;99.90
12655;DHT22;6392;44.644;11.448;2023-11-19T12:03:37;12.90;99.90
12655;DHT22;6392;44.644;11.448;2023-11-19T12:06:05;12.90;99.90
12655;DHT22;6392;44.644;11.448;2023-11-19T12:08:34;13.00;99.90
12655;DHT22;6392;44.644;11.448;2023-11-19T12:11:02;13.10;99.90
12655;DHT22;6392;44.644;11.448;2023-11-19T12:13:54;13.20;99.90
12655;DHT22;6392;44.644;11.448;2023-11-19T12:16:28;13.20;99.90
12655;DHT22;6392;44.644;11.448;2023-11-19T12:18:56;13.30;99.90
12655;DHT22;6392;44.644;11.448;2023-11-19T12:21:30;13.30;99.90
12655;DHT22;6392;44.644;11.448;2023-11-19T12:23:59;13.30;99.90
12655;DHT22;6392;44.644;11.448;2023-11-19T12:26:37;13.50;99.90
12655;DHT22;6392;44.644;11.448;2023-11-19T12:29:06;13.60;99.90
12655;DHT22;6392;44.644;11.448;2023-11-19T12:31:33;13.70;99.90
12655;DHT22;6392;44.644;11.448;2023-11-19T12:34:07;13.80;99.90
12655;DHT22;6392;44.644;11.448;2023-11-19T12:36:38;14.00;99.90
12655;DHT22;6392;44.644;11.448;2023-11-19T12:39:06;14.10;99.90
12655;DHT22;6392;44.644;11.448;2023-11-19T12:41:49;14.30;99.90
12655;DHT22;6392;44.644;11.448;2023-11-19T12:44:18;14.30;99.90
12655;DHT22;6392;44.644;11.448;2023-11-19T12:46:45;14.40;99.90
12655;DHT22;6392;44.644;11.448;2023-11-19T12:49:12;14.50;99.90
12655;DHT22;6392;44.644;11.448;2023-11-19T12:51:40;14.70;99.90
12655;DHT22;6392;44.644;11.448;2023-11-19T12:54:07;14.80;99.90
12655;DHT22;6392;44.644;11.448;2023-11-19T12:56:38;14.90;99.90
12655;DHT22;6392;44.644;11.448;2023-11-19T12:59:11;15.00;99.90
12655;DHT22;6392;44.644;11.448;2023-11-19T13:01:40;15.10;99.90
12655;DHT22;6392;44.644;11.448;2023-11-19T13:04:18;15.30;99.90
12655;DHT22;6392;44.644;11.448;2023-11-19T13:06:46;15.40;99.90
12655;DHT22;6392;44.644;11.448;2023-11-19T13:09:23;15.60;99.90
12655;DHT22;6392;44.644;11.448;2023-11-19T13:11:51;15.70;99.90
12655;DHT22;6392;44.644;11.448;2023-11-19T13:14:19;15.80;99.90
12655;DHT22;6392;44.644;11.448;2023-11-19T13:16:47;15.80;99.90
12655;DHT22;6392;44.644;11.448;2023-11-19T13:19:16;15.80;99.90
12655;DHT22;6392;44.644;11.448;2023-11-19T13:21:44;15.90;99.90
12655;DHT22;6392;44.644;11.448;2023-11-19T13:24:13;16.00;99.90
12655;DHT22;6392;44.644;11.448;2023-11-19T13:26:40;16.10;99.90
12655;DHT22;6392;44.644;11.448;2023-11-19T13:29:07;16.20;99.90
12655;DHT22;6392;44.644;11.448;2023-11-19T13:31:36;16.30;99.90
12655;DHT22;6392;44.644;11.448;2023-11-19T13:34:05;16.40;99.90
12655;DHT22;6392;44.644;11.448;2023-11-19T13:36:33;16.50;99.90
12655;DHT22;6392;44.644;11.448;2023-11-19T13:39:01;16.60;99.90
12655;DHT22;6392;44.644;11.448;2023-11-19T13:41:28;16.70;99.90
12655;DHT22;6392;44.644;11.448;2023-11-19T13:43:57;16.80;99.90
12655;DHT22;6392;44.644;11.448;2023-11-19T13:46:29;16.80;99.90
12655;DHT22;6392;44.644;11.448;2023-11-19T13:48:56;16.80;99.90
12655;DHT22;6392;44.644;11.448;2023-11-19T13:51:25;16.70;99.90
12655;DHT22;6392;44.644;11.448;2023-11-19T13:53:52;16.80;99.90
12655;DHT22;6392;44.644;11.448;2023-11-19T13:56:20;16.70;99.90
12655;DHT22;6392;44.644;11.448;2023-11-19T13:58:47;16.60;99.90
12655;DHT22;6392;44.644;11.448;2023-11-19T14:01:14;16.40;99.90
12655;DHT22;6392;44.644;11.448;2023-11-19T14:03:41;16.30;99.90
12655;DHT22;6392;44.644;11.448;2023-11-19T14:06:09;16.10;99.90
12655;DHT22;6392;44.644;11.448;2023-11-19T14:08:38;15.90;99.90
12655;DHT22;6392;44.644;11.448;2023-11-19T14:11:07;15.80;99.90
12655;DHT22;6392;44.644;11.448;2023-11-19T14:13:38;15.70;99.90
12655;DHT22;6392;44.644;11.448;2023-11-19T14:16:07;15.60;99.90
12655;DHT22;6392;44.644;11.448;2023-11-19T14:18:35;15.50;99.90
12655;DHT22;6392;44.644;11.448;2023-11-19T14:21:03;15.40;99.90
12655;DHT22;6392;44.644;11.448;2023-11-19T14:23:32;15.30;99.90
12655;DHT22;6392;44.644;11.448;2023-11-19T14:26:00;15.30;99.90
12655;DHT22;6392;44.644;11.448;2023-11-19T14:28:28;15.30;99.90
12655;DHT22;6392;44.644;11.448;2023-11-19T14:30:57;15.20;99.90
12655;DHT22;6392;44.644;11.448;2023-11-19T14:33:24;15.30;99.90
12655;DHT22;6392;44.644;11.448;2023-11-19T14:35:51;15.20;99.90
12655;DHT22;6392;44.644;11.448;2023-11-19T14:38:19;15.20;99.90
12655;DHT22;6392;44.644;11.448;2023-11-19T14:40:46;15.10;99.90
12655;DHT22;6392;44.644;11.448;2023-11-19T14:43:15;15.10;99.90
12655;DHT22;6392;44.644;11.448;2023-11-19T14:45:42;15.10;99.90
12655;DHT22;6392;44.644;11.448;2023-11-19T14:48:09;15.00;99.90
12655;DHT22;6392;44.644;11.448;2023-11-19T14:50:37;14.90;99.90
12655;DHT22;6392;44.644;11.448;2023-11-19T14:53:04;14.90;99.90
12655;DHT22;6392;44.644;11.448;2023-11-19T14:55:32;14.90;99.90
12655;DHT22;6392;44.644;11.448;2023-11-19T14:57:59;14.80;99.90
12655;DHT22;6392;44.644;11.448;2023-11-19T15:00:28;14.80;99.90
12655;DHT22;6392;44.644;11.448;2023-11-19T15:02:55;14.80;99.90
12655;DHT22;6392;44.644;11.448;2023-11-19T15:05:23;14.80;99.90
12655;DHT22;6392;44.644;11.448;2023-11-19T15:07:50;14.70;99.90
12655;DHT22;6392;44.644;11.448;2023-11-19T15:10:19;14.70;99.90
12655;DHT22;6392;44.644;11.448;2023-11-19T15:12:46;14.70;99.90
12655;DHT22;6392;44.644;11.448;2023-11-19T15:15:13;14.70;99.90
12655;DHT22;6392;44.644;11.448;2023-11-19T15:17:42;14.70;99.90
12655;DHT22;6392;44.644;11.448;2023-11-19T15:20:11;14.60;99.90
12655;DHT22;6392;44.644;11.448;2023-11-19T15:22:41;14.60;99.90
12655;DHT22;6392;44.644;11.448;2023-11-19T15:25:08;14.60;99.90
12655;DHT22;6392;44.644;11.448;2023-11-19T15:27:37;14.50;99.90
12655;DHT22;6392;44.644;11.448;2023-11-19T15:30:06;14.50;99.90
12655;DHT22;6392;44.644;11.448;2023-11-19T15:32:35;14.30;99.90
12655;DHT22;6392;44.644;11.448;2023-11-19T15:35:04;14.30;99.90
12655;DHT22;6392;44.644;11.448;2023-11-19T15:47:38;14.10;99.90
12655;DHT22;6392;44.644;11.448;2023-11-19T15:50:07;13.90;99.90
12655;DHT22;6392;44.644;11.448;2023-11-19T15:52:36;13.70;99.90
12655;DHT22;6392;44.644;11.448;2023-11-19T15:55:04;13.60;99.90
12655;DHT22;6392;44.644;11.448;2023-11-19T15:57:31;13.50;99.90
12655;DHT22;6392;44.644;11.448;2023-11-19T15:59:58;13.40;99.90
12655;DHT22;6392;44.644;11.448;2023-11-19T16:02:28;13.40;99.90